Time;durP1;ratioP1;P1;durP2;ratioP2;P2;SDS_P1;SDS_P2;PMS_P1;PMS_P2;Temp;Humidity;BMP_temperature;BMP_pressure;BME280_temperature;BME280_humidity;BME280_pressure;Samples;Min_cycle;Max_cycle;Signal;HPM_P1;HPM_P2
2022/03/16 00:00:27;;;;;;;61.10;34.42;;;7.30;99.90;;;;;;5007209;28;20503;-72
2022/03/16 00:02:53;;;;;;;60.72;33.70;;;8.10;99.90;;;;;;4991457;28;20061;-72
2022/03/16 00:05:19;;;;;;;59.38;33.80;;;7.30;99.90;;;;;;5010145;28;20046;-71
2022/03/16 00:07:45;;;;;;;60.67;33.28;;;8.10;99.90;;;;;;5008455;28;20068;-72
2022/03/16 00:10:11;;;;;;;63.03;34.13;;;7.20;99.90;;;;;;5009217;28;20152;-71
2022/03/16 00:12:38;;;;;;;56.85;33.75;;;7.20;99.90;;;;;;5009604;28;20046;-73
2022/03/16 00:15:04;;;;;;;63.78;34.40;;;7.20;99.90;;;;;;5008580;28;20100;-72
2022/03/16 00:17:31;;;;;;;60.55;33.35;;;7.10;99.90;;;;;;5009785;28;20467;-72
2022/03/16 00:19:56;;;;;;;58.85;33.22;;;7.00;99.90;;;;;;5007584;28;20077;-72
2022/03/16 00:22:22;;;;;;;61.65;35.25;;;7.00;99.90;;;;;;5008070;28;20131;-71
2022/03/16 00:24:47;;;;;;;66.40;35.55;;;7.00;99.90;;;;;;5009219;28;20120;-72
2022/03/16 00:27:13;;;;;;;65.88;35.55;;;7.00;99.90;;;;;;5009259;28;20038;-72
2022/03/16 00:29:39;;;;;;;64.57;35.50;;;7.00;99.90;;;;;;5008736;28;20049;-72
2022/03/16 00:32:05;;;;;;;62.75;34.83;;;7.00;99.90;;;;;;5008707;28;20046;-72
2022/03/16 00:34:31;;;;;;;64.78;35.45;;;6.90;99.90;;;;;;5007000;28;20529;-72
2022/03/16 00:36:57;;;;;;;63.35;35.53;;;6.90;99.90;;;;;;5009532;28;20046;-72
2022/03/16 00:39:23;;;;;;;59.42;33.80;;;7.20;99.90;;;;;;5007553;28;20414;-72
2022/03/16 00:41:48;;;;;;;59.25;34.75;;;6.80;99.90;;;;;;5008381;28;20045;-72
2022/03/16 00:44:14;;;;;;;68.60;34.88;;;6.80;99.90;;;;;;5008544;28;20053;-72
2022/03/16 00:46:41;;;;;;;63.20;34.92;;;6.80;99.90;;;;;;5009766;28;20505;-72
2022/03/16 00:49:06;;;;;;;61.13;34.70;;;6.80;99.90;;;;;;5007213;28;20064;-72
2022/03/16 00:51:32;;;;;;;56.13;33.58;;;6.80;99.90;;;;;;5009329;28;20342;-72
2022/03/16 00:53:58;;;;;;;63.05;34.58;;;6.70;99.90;;;;;;5008985;28;20141;-72
2022/03/16 00:56:27;;;;;;;62.67;34.55;;;6.70;99.90;;;;;;5008611;28;20050;-72
2022/03/16 00:58:53;;;;;;;59.47;33.03;;;6.70;99.90;;;;;;5003248;28;20074;-72
2022/03/16 01:01:18;;;;;;;60.45;34.78;;;6.60;99.90;;;;;;5006664;28;20092;-72
2022/03/16 01:03:44;;;;;;;62.75;34.33;;;6.60;99.90;;;;;;5007153;28;20046;-72
2022/03/16 01:06:15;;;;;;;64.38;35.92;;;6.50;99.90;;;;;;5009644;28;20050;-72
2022/03/16 01:08:43;;;;;;;55.83;32.35;;;6.50;99.90;;;;;;5008476;28;20052;-72
2022/03/16 01:11:11;;;;;;;62.53;34.35;;;6.50;99.90;;;;;;5007982;28;20438;-72
2022/03/16 01:13:36;;;;;;;66.82;35.58;;;6.50;99.90;;;;;;5008533;28;20077;-72
2022/03/16 01:16:03;;;;;;;61.03;34.33;;;6.50;99.90;;;;;;5008613;28;20149;-72
2022/03/16 01:18:28;;;;;;;63.03;35.10;;;6.50;99.90;;;;;;5007121;28;20056;-72
2022/03/16 01:20:54;;;;;;;62.78;34.55;;;7.40;99.90;;;;;;5009448;28;20034;-72
2022/03/16 01:23:20;;;;;;;64.60;37.22;;;6.40;99.90;;;;;;5010051;28;20073;-72
2022/03/16 01:25:45;;;;;;;68.60;36.08;;;6.40;99.90;;;;;;5012129;28;20378;-72
2022/03/16 01:28:11;;;;;;;70.78;38.22;;;6.80;99.90;;;;;;5012315;28;20057;-72
2022/03/16 01:30:37;;;;;;;63.15;35.15;;;6.30;99.90;;;;;;5012688;28;20046;-72
2022/03/16 01:33:03;;;;;;;64.93;34.97;;;6.30;99.90;;;;;;5011217;28;20049;-72
2022/03/16 01:35:31;;;;;;;62.80;34.60;;;6.30;99.90;;;;;;5013499;28;20169;-72
2022/03/16 01:37:56;;;;;;;69.97;36.85;;;6.30;99.90;;;;;;5011730;28;20109;-72
2022/03/16 01:40:22;;;;;;;68.63;34.45;;;6.20;99.90;;;;;;5013248;28;20517;-72
2022/03/16 01:42:48;;;;;;;65.80;34.95;;;6.30;99.90;;;;;;5012275;28;20041;-72
2022/03/16 01:45:13;;;;;;;65.78;34.45;;;6.20;99.90;;;;;;5012182;28;20403;-72
2022/03/16 01:47:42;;;;;;;62.33;33.83;;;6.20;99.90;;;;;;5012932;28;20389;-72
2022/03/16 01:50:08;;;;;;;68.95;34.92;;;6.10;99.90;;;;;;5013408;28;20125;-72
2022/03/16 01:52:34;;;;;;;64.03;33.92;;;6.10;99.90;;;;;;5011691;28;20057;-72
2022/03/16 01:55:04;;;;;;;62.42;34.80;;;6.10;99.90;;;;;;5010833;28;20474;-72
2022/03/16 01:57:33;;;;;;;61.22;33.35;;;6.60;99.90;;;;;;5011420;28;20046;-72
2022/03/16 01:59:59;;;;;;;68.47;34.85;;;6.10;99.90;;;;;;5010519;28;20096;-72
2022/03/16 02:02:25;;;;;;;58.85;34.28;;;6.10;99.90;;;;;;5014602;28;20049;-71
2022/03/16 02:04:50;;;;;;;60.13;34.20;;;6.00;99.90;;;;;;5012516;28;20489;-72
2022/03/16 02:07:16;;;;;;;62.75;34.63;;;6.00;99.90;;;;;;5012311;28;20125;-72
2022/03/16 02:09:42;;;;;;;58.92;35.30;;;6.00;99.90;;;;;;5012100;28;20049;-72
2022/03/16 02:12:11;;;;;;;61.38;34.72;;;6.00;99.90;;;;;;5012488;28;20038;-72
2022/03/16 02:14:37;;;;;;;67.07;34.42;;;6.00;99.90;;;;;;5013362;28;20089;-72
2022/03/16 02:17:03;;;;;;;57.75;33.75;;;6.00;99.90;;;;;;5012733;28;20081;-72
2022/03/16 02:19:28;;;;;;;63.22;35.63;;;6.00;99.90;;;;;;5011911;28;20072;-72
2022/03/16 02:22:00;;;;;;;67.80;36.25;;;6.00;99.90;;;;;;5013117;28;20045;-72
2022/03/16 02:24:26;;;;;;;55.17;34.05;;;6.00;99.90;;;;;;5012095;28;20045;-72
2022/03/16 02:26:52;;;;;;;65.28;35.20;;;6.00;99.90;;;;;;5012349;28;20490;-72
2022/03/16 02:29:18;;;;;;;58.42;35.28;;;6.00;99.90;;;;;;5011624;28;20041;-72
2022/03/16 02:31:43;;;;;;;64.07;34.38;;;6.10;99.90;;;;;;5010860;28;20042;-72
2022/03/16 02:34:09;;;;;;;66.75;35.00;;;6.00;99.90;;;;;;5008962;28;20090;-72
2022/03/16 02:36:35;;;;;;;61.38;33.90;;;6.00;99.90;;;;;;5011992;28;20045;-73
2022/03/16 02:39:00;;;;;;;65.28;36.03;;;5.90;99.90;;;;;;4993423;28;20462;-72
2022/03/16 02:41:26;;;;;;;65.00;35.70;;;5.90;99.90;;;;;;4992235;28;20092;-72
2022/03/16 02:43:51;;;;;;;61.58;35.30;;;5.90;99.90;;;;;;4992291;28;20061;-72
2022/03/16 02:46:17;;;;;;;68.22;34.70;;;5.80;99.90;;;;;;5008609;28;20121;-72
2022/03/16 02:48:44;;;;;;;63.60;34.75;;;5.80;99.90;;;;;;5011647;28;20184;-72
2022/03/16 02:51:10;;;;;;;66.90;35.42;;;5.80;99.90;;;;;;5011736;28;20050;-72
2022/03/16 02:53:35;;;;;;;63.67;34.08;;;5.80;99.90;;;;;;5010906;28;20049;-72
2022/03/16 02:56:01;;;;;;;61.05;33.65;;;5.80;99.90;;;;;;5012049;28;20044;-72
2022/03/16 02:58:26;;;;;;;62.67;36.03;;;5.70;99.90;;;;;;5012267;28;20498;-72
2022/03/16 03:00:52;;;;;;;63.50;35.67;;;5.80;99.90;;;;;;5011722;28;20081;-72
2022/03/16 03:03:18;;;;;;;62.17;35.10;;;5.70;99.90;;;;;;5010225;28;20495;-72
2022/03/16 03:05:44;;;;;;;63.97;34.33;;;5.80;99.90;;;;;;5011527;28;20119;-72
2022/03/16 03:08:09;;;;;;;62.10;34.60;;;5.80;99.90;;;;;;5011367;28;20046;-72
2022/03/16 03:10:35;;;;;;;64.90;34.88;;;5.80;99.90;;;;;;4995512;28;20092;-72
2022/03/16 03:13:01;;;;;;;62.72;34.92;;;5.70;99.90;;;;;;4992167;28;20042;-72
2022/03/16 03:15:27;;;;;;;63.70;35.15;;;5.70;99.90;;;;;;4992292;28;20505;-71
2022/03/16 03:17:53;;;;;;;63.22;34.13;;;5.60;99.90;;;;;;4992308;28;20131;-72
2022/03/16 03:20:19;;;;;;;67.03;36.80;;;5.60;99.90;;;;;;5010366;28;20050;-72
2022/03/16 03:22:47;;;;;;;64.03;34.45;;;5.70;99.90;;;;;;5010280;28;20456;-72
2022/03/16 03:25:14;;;;;;;59.70;35.17;;;5.60;99.90;;;;;;4990836;28;20141;-72
2022/03/16 03:27:40;;;;;;;63.03;35.47;;;5.60;99.90;;;;;;4973597;28;20057;-72
2022/03/16 03:30:06;;;;;;;61.90;33.72;;;5.60;99.90;;;;;;4991781;28;20490;-72
2022/03/16 03:32:32;;;;;;;69.35;36.03;;;5.50;99.90;;;;;;4993121;28;20054;-72
2022/03/16 03:34:58;;;;;;;63.58;35.53;;;5.50;99.90;;;;;;4992534;28;20042;-72
2022/03/16 03:37:32;;;;;;;66.60;35.40;;;5.40;99.90;;;;;;5009670;28;20539;-72
2022/03/16 03:39:58;;;;;;;68.28;36.25;;;5.40;99.90;;;;;;5010520;28;20038;-72
2022/03/16 03:42:24;;;;;;;62.97;35.38;;;5.40;99.90;;;;;;5011105;28;20073;-71
2022/03/16 03:44:50;;;;;;;67.32;35.05;;;5.40;99.90;;;;;;5008001;28;20065;-72
2022/03/16 03:47:16;;;;;;;69.68;35.58;;;5.30;99.90;;;;;;5011247;28;20038;-72
2022/03/16 03:49:42;;;;;;;64.57;35.33;;;5.30;99.90;;;;;;4998737;28;20470;-72
2022/03/16 03:52:08;;;;;;;61.80;35.67;;;5.30;99.90;;;;;;5010631;28;20038;-72
2022/03/16 03:54:35;;;;;;;68.40;35.38;;;6.00;99.90;;;;;;5009724;28;20037;-72
2022/03/16 03:57:01;;;;;;;68.45;36.50;;;5.20;99.90;;;;;;5010657;28;20343;-72
2022/03/16 03:59:26;;;;;;;68.13;35.38;;;5.20;99.90;;;;;;5009687;28;20057;-72
2022/03/16 04:01:52;;;;;;;62.97;34.17;;;5.20;99.90;;;;;;5009778;28;20057;-72
2022/03/16 04:04:18;;;;;;;68.38;36.20;;;5.20;99.90;;;;;;5009228;28;20045;-72
2022/03/16 04:06:45;;;;;;;72.57;36.90;;;5.20;99.90;;;;;;5010023;28;20175;-71
2022/03/16 04:09:10;;;;;;;71.18;37.38;;;5.20;99.90;;;;;;5009781;28;20056;-71
2022/03/16 04:11:36;;;;;;;75.38;38.83;;;5.20;99.90;;;;;;5010299;28;20037;-72
2022/03/16 04:14:02;;;;;;;71.22;39.10;;;5.20;99.90;;;;;;5009112;28;20129;-72
2022/03/16 04:16:28;;;;;;;77.95;40.97;;;5.20;99.90;;;;;;5010712;28;20049;-72
2022/03/16 04:18:54;;;;;;;73.00;37.92;;;5.40;99.90;;;;;;5007489;28;20038;-72
2022/03/16 04:21:21;;;;;;;77.00;37.55;;;5.20;99.90;;;;;;5009302;28;20072;-72
2022/03/16 04:23:46;;;;;;;75.28;37.75;;;5.20;99.90;;;;;;5009340;28;20046;-72
2022/03/16 04:26:12;;;;;;;66.25;35.58;;;5.20;99.90;;;;;;5009838;28;20116;-72
2022/03/16 04:28:38;;;;;;;75.82;36.15;;;5.10;99.90;;;;;;5009074;28;20045;-72
2022/03/16 04:31:03;;;;;;;72.68;36.53;;;5.10;99.90;;;;;;5008766;28;20482;-72
2022/03/16 04:33:29;;;;;;;74.88;37.35;;;5.10;99.90;;;;;;5008011;28;20050;-72
2022/03/16 04:35:55;;;;;;;78.88;39.83;;;5.10;99.90;;;;;;5009723;28;20057;-72
2022/03/16 04:38:21;;;;;;;79.47;38.70;;;5.10;99.90;;;;;;4996228;28;20030;-72
2022/03/16 04:40:47;;;;;;;82.32;38.75;;;5.10;99.90;;;;;;4989759;28;20038;-72
2022/03/16 04:43:13;;;;;;;76.40;38.13;;;5.00;99.90;;;;;;4990161;28;20042;-71
2022/03/16 04:45:40;;;;;;;80.47;37.60;;;5.00;99.90;;;;;;4989707;28;20515;-72
2022/03/16 04:48:10;;;;;;;75.40;37.45;;;5.00;99.90;;;;;;4989015;28;20101;-71
2022/03/16 04:50:36;;;;;;;82.70;40.10;;;5.00;99.90;;;;;;4989860;28;20046;-72
2022/03/16 04:53:02;;;;;;;78.07;38.47;;;4.90;99.90;;;;;;5005229;28;20513;-71
2022/03/16 04:55:28;;;;;;;76.15;38.45;;;4.90;99.90;;;;;;5009141;28;20129;-72
2022/03/16 04:57:54;;;;;;;81.45;39.75;;;4.90;99.90;;;;;;5010842;28;20529;-72
2022/03/16 05:00:19;;;;;;;78.63;41.15;;;4.90;99.90;;;;;;5007965;28;20042;-72
2022/03/16 05:02:45;;;;;;;84.15;40.90;;;4.90;99.90;;;;;;5008526;28;20121;-72
2022/03/16 05:05:11;;;;;;;85.63;43.15;;;4.90;99.90;;;;;;5009055;28;20037;-72
2022/03/16 05:07:42;;;;;;;75.85;38.90;;;4.90;99.90;;;;;;5009039;28;20050;-72
2022/03/16 05:10:09;;;;;;;83.03;40.55;;;5.00;99.90;;;;;;4999163;28;20056;-72
2022/03/16 05:12:42;;;;;;;78.63;38.20;;;6.00;99.90;;;;;;5004756;28;20096;-72
2022/03/16 05:15:12;;;;;;;82.00;39.40;;;5.00;99.90;;;;;;5009928;28;20072;-72
2022/03/16 05:17:40;;;;;;;74.63;38.53;;;5.00;99.90;;;;;;5008628;28;20093;-72
2022/03/16 05:20:07;;;;;;;72.90;38.03;;;5.00;99.90;;;;;;5009091;28;20049;-71
2022/03/16 05:22:47;;;;;;;76.38;37.97;;;5.00;99.90;;;;;;5009993;28;20046;-72
2022/03/16 05:25:14;;;;;;;75.55;37.22;;;5.00;99.90;;;;;;5007812;28;20364;-71
2022/03/16 05:27:40;;;;;;;80.78;37.70;;;5.00;99.90;;;;;;5009306;28;20046;-72
2022/03/16 05:30:07;;;;;;;77.63;38.28;;;5.00;99.90;;;;;;5008652;28;20058;-72
2022/03/16 05:32:33;;;;;;;73.25;36.78;;;5.10;99.90;;;;;;5008257;28;20332;-72
2022/03/16 05:34:59;;;;;;;78.07;39.30;;;5.10;99.90;;;;;;5008617;28;20061;-72
2022/03/16 05:37:24;;;;;;;72.05;37.67;;;5.00;99.90;;;;;;5008330;28;20096;-72
2022/03/16 05:39:50;;;;;;;73.47;37.00;;;5.10;99.90;;;;;;5007846;28;20510;-72
2022/03/16 05:42:15;;;;;;;73.63;37.58;;;5.10;99.90;;;;;;5008651;28;20034;-71
2022/03/16 05:44:41;;;;;;;73.70;37.95;;;5.10;99.90;;;;;;5007957;28;20034;-72
2022/03/16 05:47:06;;;;;;;74.80;37.70;;;5.10;99.90;;;;;;5007855;28;20133;-71
2022/03/16 05:49:32;;;;;;;77.88;38.28;;;5.10;99.90;;;;;;5007160;28;20038;-72
2022/03/16 05:51:58;;;;;;;71.70;36.17;;;5.10;99.90;;;;;;5008230;28;20417;-72
2022/03/16 05:54:23;;;;;;;64.57;35.95;;;5.10;99.90;;;;;;5008031;28;20064;-71
2022/03/16 05:56:49;;;;;;;67.45;35.55;;;5.10;99.90;;;;;;5007572;28;20359;-72
2022/03/16 05:59:14;;;;;;;67.78;34.72;;;5.10;99.90;;;;;;5008280;28;20054;-71
2022/03/16 06:01:40;;;;;;;67.15;34.67;;;4.90;99.90;;;;;;5008397;28;20042;-71
2022/03/16 06:04:06;;;;;;;61.05;33.97;;;5.20;99.90;;;;;;5007695;28;20395;-71
2022/03/16 06:06:31;;;;;;;69.18;34.60;;;5.20;99.90;;;;;;5007414;28;20037;-71
2022/03/16 06:08:57;;;;;;;69.47;36.90;;;5.20;99.90;;;;;;5008207;28;20042;-71
2022/03/16 06:11:24;;;;;;;66.32;35.53;;;5.20;99.90;;;;;;5012785;28;20406;-71
2022/03/16 06:13:50;;;;;;;60.08;34.17;;;5.20;99.90;;;;;;5010384;28;20042;-72
2022/03/16 06:16:15;;;;;;;59.70;33.92;;;5.20;99.90;;;;;;5010723;28;20088;-71
2022/03/16 06:18:41;;;;;;;61.47;33.15;;;5.30;99.90;;;;;;5011380;28;20505;-72
2022/03/16 06:21:07;;;;;;;55.83;31.95;;;5.30;99.90;;;;;;5010505;28;20042;-72
2022/03/16 06:23:32;;;;;;;56.58;31.75;;;6.80;99.90;;;;;;5011258;28;20486;-71
2022/03/16 06:25:58;;;;;;;58.58;33.10;;;5.40;99.90;;;;;;5011918;28;20103;-71
2022/03/16 06:28:23;;;;;;;60.85;35.90;;;5.50;99.90;;;;;;4993511;28;20104;-73
2022/03/16 06:30:49;;;;;;;62.50;34.10;;;5.50;99.90;;;;;;5011845;28;20074;-71
2022/03/16 06:33:15;;;;;;;68.22;34.63;;;5.50;99.90;;;;;;5009038;28;20572;-71
2022/03/16 06:35:40;;;;;;;61.42;33.90;;;5.50;99.90;;;;;;5009933;28;20057;-71
2022/03/16 06:38:06;;;;;;;59.60;33.38;;;5.50;99.90;;;;;;5000577;28;20557;-71
2022/03/16 06:40:31;;;;;;;64.75;33.10;;;5.40;99.90;;;;;;5006207;28;20115;-71
2022/03/16 06:42:59;;;;;;;58.72;33.15;;;5.50;99.90;;;;;;4973893;28;20074;-74
2022/03/16 06:45:27;;;;;;;63.63;34.08;;;5.60;99.90;;;;;;4992399;28;20046;-72
2022/03/16 06:47:54;;;;;;;59.50;33.17;;;5.50;99.90;;;;;;4991799;28;20073;-71
2022/03/16 06:50:20;;;;;;;57.75;33.25;;;5.60;99.90;;;;;;5010912;28;20061;-73
2022/03/16 06:52:47;;;;;;;61.15;35.35;;;5.70;99.90;;;;;;5010880;28;20038;-73
2022/03/16 06:55:13;;;;;;;60.50;33.45;;;5.70;99.90;;;;;;5009457;28;20101;-72
2022/03/16 06:57:38;;;;;;;65.18;34.55;;;7.00;99.90;;;;;;5010985;28;20169;-72
2022/03/16 07:00:07;;;;;;;61.42;33.83;;;5.90;99.90;;;;;;5010759;28;20037;-72
2022/03/16 07:02:57;;;;;;;66.53;35.15;;;5.90;99.90;;;;;;5010093;28;20050;-72
2022/03/16 07:05:31;;;;;;;63.55;36.00;;;6.00;99.90;;;;;;5000342;28;20137;-72
2022/03/16 07:07:58;;;;;;;62.67;35.22;;;6.00;99.90;;;;;;5010145;28;20402;-73
2022/03/16 07:10:25;;;;;;;70.53;35.95;;;6.00;99.90;;;;;;5010149;28;20060;-72
2022/03/16 07:12:51;;;;;;;63.00;35.83;;;6.10;99.90;;;;;;5010676;28;20328;-73
2022/03/16 07:15:17;;;;;;;64.57;33.97;;;6.10;99.90;;;;;;5010877;28;20053;-72
2022/03/16 07:17:42;;;;;;;59.22;34.00;;;6.20;99.90;;;;;;5009905;28;20046;-73
2022/03/16 07:20:09;;;;;;;55.55;33.95;;;6.20;99.90;;;;;;5008405;28;20463;-72
2022/03/16 07:22:35;;;;;;;53.70;31.40;;;6.30;99.90;;;;;;5009160;28;20144;-72
2022/03/16 07:25:03;;;;;;;53.58;31.48;;;6.40;99.90;;;;;;5008065;28;20486;-73
2022/03/16 07:27:28;;;;;;;51.97;30.25;;;6.50;99.90;;;;;;5008078;28;20041;-72
2022/03/16 07:29:54;;;;;;;54.90;30.17;;;6.60;99.90;;;;;;5011241;28;20046;-76
2022/03/16 07:32:19;;;;;;;51.80;30.55;;;6.70;99.90;;;;;;5010283;28;20486;-72
2022/03/16 07:34:46;;;;;;;50.13;30.08;;;6.80;99.90;;;;;;5008589;28;20050;-72
2022/03/16 07:37:12;;;;;;;54.60;30.48;;;6.90;99.90;;;;;;5008083;28;20108;-73
2022/03/16 07:39:37;;;;;;;49.45;30.90;;;7.20;99.90;;;;;;5008832;28;20038;-71
2022/03/16 07:42:03;;;;;;;49.45;30.88;;;7.40;99.90;;;;;;5008433;28;20172;-71
2022/03/16 07:44:29;;;;;;;48.05;28.40;;;7.50;99.90;;;;;;5009375;28;20092;-71
2022/03/16 07:46:55;;;;;;;45.08;27.98;;;7.50;99.90;;;;;;5010448;28;20042;-71
2022/03/16 07:49:20;;;;;;;46.47;28.00;;;7.60;99.90;;;;;;4994394;28;20113;-72
2022/03/16 07:51:46;;;;;;;44.33;28.20;;;7.70;99.90;;;;;;4988338;28;20101;-72
2022/03/16 07:54:11;;;;;;;40.97;26.73;;;7.90;99.90;;;;;;4989236;28;20089;-73
2022/03/16 07:56:37;;;;;;;44.55;26.90;;;8.60;99.90;;;;;;5003609;28;20115;-73
2022/03/16 07:59:03;;;;;;;51.78;29.35;;;8.30;99.90;;;;;;5007876;28;20036;-70
2022/03/16 08:01:28;;;;;;;46.75;26.48;;;8.40;99.90;;;;;;5007568;28;20033;-70
2022/03/16 08:03:54;;;;;;;42.05;26.08;;;8.50;99.90;;;;;;4995108;28;20105;-70
2022/03/16 08:06:20;;;;;;;40.50;26.45;;;8.50;99.90;;;;;;4997044;28;20050;-69
2022/03/16 08:08:46;;;;;;;43.92;27.40;;;8.60;99.90;;;;;;4996005;28;20046;-70
2022/03/16 08:11:12;;;;;;;40.75;26.95;;;8.60;99.90;;;;;;4981332;28;20427;-70
2022/03/16 08:13:38;;;;;;;41.30;26.23;;;8.60;99.90;;;;;;4997181;28;20121;-70
2022/03/16 08:16:06;;;;;;;41.20;27.10;;;8.90;99.90;;;;;;4997462;28;20042;-70
2022/03/16 08:18:34;;;;;;;42.17;27.88;;;9.30;99.90;;;;;;4995790;28;20041;-70
2022/03/16 08:20:59;;;;;;;41.50;26.95;;;8.80;99.90;;;;;;4998480;28;20052;-70
2022/03/16 08:23:25;;;;;;;37.85;25.42;;;8.80;99.90;;;;;;4998514;28;20397;-70
2022/03/16 08:25:51;;;;;;;39.92;26.45;;;8.90;99.90;;;;;;4994792;28;20069;-69
2022/03/16 08:28:16;;;;;;;45.10;26.50;;;9.10;99.90;;;;;;5007296;28;20045;-70
2022/03/16 08:30:42;;;;;;;39.17;25.35;;;9.90;99.90;;;;;;5007501;28;20179;-69
2022/03/16 08:33:08;;;;;;;41.13;25.38;;;10.20;99.90;;;;;;5008168;28;20411;-70
2022/03/16 08:35:33;;;;;;;36.90;23.80;;;10.70;99.90;;;;;;5007331;28;20054;-70
2022/03/16 08:37:59;;;;;;;37.95;23.75;;;10.20;99.90;;;;;;5005987;28;20390;-70
2022/03/16 08:40:25;;;;;;;35.55;23.27;;;10.30;99.90;;;;;;4990954;28;20100;-71
2022/03/16 08:42:52;;;;;;;35.75;24.10;;;10.50;99.90;;;;;;5007904;28;20410;-71
2022/03/16 08:45:21;;;;;;;33.78;22.52;;;10.50;99.90;;;;;;5007758;28;20060;-72
2022/03/16 08:47:46;;;;;;;35.55;23.90;;;10.70;99.90;;;;;;5006216;28;20069;-72
2022/03/16 08:50:12;;;;;;;39.70;24.20;;;11.10;99.90;;;;;;5007511;28;20070;-72
2022/03/16 08:52:38;;;;;;;35.25;24.10;;;11.50;99.90;;;;;;5007315;28;20072;-72
2022/03/16 08:55:05;;;;;;;37.28;23.90;;;13.00;99.90;;;;;;5006973;28;20474;-71
2022/03/16 08:57:31;;;;;;;33.05;22.77;;;14.50;99.90;;;;;;5008814;28;20060;-72
2022/03/16 08:59:57;;;;;;;32.85;21.40;;;15.90;99.90;;;;;;5007309;28;20041;-72
2022/03/16 09:02:23;;;;;;;29.52;21.17;;;17.50;99.90;;;;;;5007266;28;20041;-72
2022/03/16 09:04:50;;;;;;;29.70;20.30;;;19.30;99.90;;;;;;5007444;28;20133;-71
2022/03/16 09:07:16;;;;;;;27.13;19.40;;;20.90;99.90;;;;;;5007568;28;20034;-71
2022/03/16 09:09:42;;;;;;;28.08;20.80;;;21.80;99.90;;;;;;5004600;28;20129;-71
2022/03/16 09:12:09;;;;;;;27.05;18.58;;;22.80;99.90;;;;;;5006384;28;20038;-71
2022/03/16 09:14:34;;;;;;;25.95;19.13;;;23.50;97.60;;;;;;5007208;28;20060;-71
2022/03/16 09:17:00;;;;;;;27.58;19.17;;;24.00;97.20;;;;;;5006842;28;20038;-71
2022/03/16 09:19:26;;;;;;;24.25;17.25;;;25.10;95.80;;;;;;5007741;28;20467;-71
2022/03/16 09:21:51;;;;;;;25.15;17.60;;;25.60;93.10;;;;;;5008905;28;20054;-71
2022/03/16 09:24:17;;;;;;;22.00;17.45;;;27.40;91.60;;;;;;5007020;28;20121;-70
2022/03/16 09:26:44;;;;;;;22.73;17.38;;;27.50;84.10;;;;;;5010403;28;20045;-72
2022/03/16 09:29:11;;;;;;;21.10;16.48;;;28.30;79.20;;;;;;5002249;28;20058;-71
2022/03/16 09:31:37;;;;;;;23.10;17.55;;;28.70;76.30;;;;;;4988617;28;20129;-71
2022/03/16 09:34:05;;;;;;;25.58;18.10;;;29.00;70.30;;;;;;4987768;28;20042;-71
2022/03/16 09:36:32;;;;;;;22.90;17.73;;;28.40;70.70;;;;;;5003316;28;20430;-71
2022/03/16 09:38:58;;;;;;;22.35;17.05;;;27.60;69.60;;;;;;4988503;28;20447;-70
2022/03/16 09:41:28;;;;;;;21.83;16.48;;;26.70;73.80;;;;;;4988858;28;20089;-70
2022/03/16 09:43:54;;;;;;;22.83;17.33;;;25.30;76.40;;;;;;4992038;28;20038;-71
2022/03/16 09:46:29;;;;;;;23.33;17.75;;;24.90;75.10;;;;;;5011825;28;20049;-70
2022/03/16 09:48:55;;;;;;;22.80;17.30;;;24.90;75.50;;;;;;5007872;28;20514;-71
2022/03/16 09:51:22;;;;;;;20.77;16.92;;;25.60;75.60;;;;;;5010128;28;20124;-71
2022/03/16 09:53:47;;;;;;;21.80;16.50;;;25.90;75.70;;;;;;5012192;28;20084;-71
2022/03/16 09:56:13;;;;;;;21.40;15.30;;;26.20;74.80;;;;;;5013920;28;20077;-71
2022/03/16 09:58:42;;;;;;;21.58;15.43;;;26.50;70.80;;;;;;5012280;28;20042;-72
2022/03/16 10:01:08;;;;;;;20.95;15.20;;;27.00;70.40;;;;;;5011426;28;20080;-72
2022/03/16 10:03:35;;;;;;;20.45;14.95;;;27.10;69.10;;;;;;5008949;28;20486;-72
2022/03/16 10:06:00;;;;;;;18.88;13.50;;;27.50;66.90;;;;;;5011885;28;20466;-72
2022/03/16 10:08:30;;;;;;;16.92;13.25;;;27.90;64.00;;;;;;5011454;28;20056;-72
2022/03/16 10:13:57;;;;;;;16.92;11.77;;;28.50;60.30;;;;;;5010236;28;20057;-71
2022/03/16 10:16:24;;;;;;;17.08;11.57;;;29.10;57.80;;;;;;5012492;28;20042;-72
2022/03/16 10:18:55;;;;;;;14.82;11.32;;;28.90;55.80;;;;;;5008313;28;20042;-71
2022/03/16 10:21:22;;;;;;;14.55;10.73;;;28.20;55.80;;;;;;5009144;28;20046;-71
2022/03/16 10:23:48;;;;;;;14.95;10.23;;;28.30;55.80;;;;;;4993865;28;20045;-72
2022/03/16 10:26:18;;;;;;;13.93;10.68;;;28.30;53.50;;;;;;4991710;28;20454;-71
2022/03/16 10:28:46;;;;;;;14.55;9.95;;;27.90;54.40;;;;;;4990142;28;20045;-74
2022/03/16 10:31:14;;;;;;;14.38;10.90;;;28.00;53.60;;;;;;4992290;28;20038;-74
2022/03/16 10:33:51;;;;;;;14.45;10.85;;;28.20;53.30;;;;;;4989539;28;20073;-75
2022/03/16 10:36:21;;;;;;;12.75;9.93;;;28.30;53.30;;;;;;4991659;28;20177;-74
2022/03/16 10:38:55;;;;;;;13.75;10.32;;;28.30;52.50;;;;;;4991217;28;20495;-75
2022/03/16 10:47:12;;;;;;;;;;;26.50;53.80;;;;;;4991259;28;20054;-74
2022/03/16 10:49:38;;;;;;;16.98;11.50;;;26.10;54.90;;;;;;4990957;28;19996;-74
2022/03/16 10:52:06;;;;;;;15.25;11.02;;;25.90;55.90;;;;;;4991675;28;20046;-74
2022/03/16 10:54:34;;;;;;;15.13;11.73;;;25.80;56.10;;;;;;4989466;28;20078;-74
2022/03/16 10:57:02;;;;;;;16.63;11.38;;;25.10;56.10;;;;;;4990101;28;20058;-74
2022/03/16 10:59:30;;;;;;;16.15;11.23;;;24.20;57.10;;;;;;5002339;28;20095;-74
2022/03/16 11:02:02;;;;;;;14.15;11.13;;;23.40;58.70;;;;;;5010085;28;20053;-74
2022/03/16 11:04:32;;;;;;;13.85;10.70;;;22.90;60.40;;;;;;5009976;28;20160;-74
2022/03/16 11:07:00;;;;;;;14.52;10.98;;;22.80;62.10;;;;;;5009190;28;20053;-75
2022/03/16 11:09:26;;;;;;;13.68;9.88;;;23.40;62.30;;;;;;5008513;28;20045;-75
2022/03/16 11:14:36;;;;;;;13.77;10.45;;;24.40;58.60;;;;;;5008089;28;20054;-75
2022/03/16 11:17:03;;;;;;;14.85;10.02;;;25.00;57.00;;;;;;5009322;28;20049;-75
2022/03/16 11:19:31;;;;;;;13.13;9.88;;;25.30;56.20;;;;;;5008931;28;20410;-75
2022/03/16 11:22:08;;;;;;;14.05;10.30;;;26.20;55.90;;;;;;5008783;28;20109;-75
2022/03/16 11:24:38;;;;;;;13.77;9.93;;;26.40;54.20;;;;;;5009003;28;20042;-75
2022/03/16 11:27:43;;;;;;;12.98;10.15;;;26.00;54.90;;;;;;5010330;28;20054;-75
2022/03/16 11:30:33;;;;;;;15.27;10.95;;;25.60;54.00;;;;;;5010051;28;20054;-75
2022/03/16 11:33:05;;;;;;;14.15;10.52;;;24.90;54.90;;;;;;5008134;28;20108;-75
2022/03/16 11:35:44;;;;;;;14.95;11.35;;;24.90;55.40;;;;;;5010116;28;20123;-74
2022/03/16 11:38:13;;;;;;;16.02;10.77;;;25.20;55.60;;;;;;5004255;28;20053;-71
2022/03/16 11:40:41;;;;;;;14.77;10.77;;;25.30;55.10;;;;;;5006005;28;20378;-71
2022/03/16 11:43:12;;;;;;;14.65;10.90;;;25.10;56.00;;;;;;5006237;28;20121;-69
2022/03/16 11:45:50;;;;;;;13.93;11.00;;;25.60;55.50;;;;;;5001215;28;20526;-71
2022/03/16 11:48:35;;;;;;;15.18;11.52;;;25.00;55.70;;;;;;4986334;28;20527;-70
2022/03/16 11:51:13;;;;;;;12.90;10.13;;;24.90;54.80;;;;;;4984701;28;20129;-71
2022/03/16 11:54:02;;;;;;;15.55;10.32;;;24.80;55.00;;;;;;5001956;28;20050;-70
2022/03/16 11:56:34;;;;;;;13.35;10.35;;;25.30;54.40;;;;;;4997055;28;20414;-70
2022/03/16 11:59:06;;;;;;;16.40;10.43;;;25.60;54.80;;;;;;5005864;28;20081;-71
2022/03/16 12:01:32;;;;;;;13.60;10.48;;;26.40;53.60;;;;;;5004299;28;20057;-71
2022/03/16 12:04:14;;;;;;;14.90;9.88;;;27.10;52.50;;;;;;5005639;28;20049;-68
2022/03/16 12:06:54;;;;;;;14.00;10.02;;;26.60;52.00;;;;;;5006806;28;20053;-68
2022/03/16 12:09:29;;;;;;;15.65;9.95;;;26.90;51.70;;;;;;5005473;28;20046;-68
2022/03/16 12:15:00;;;;;;;14.38;10.20;;;27.00;50.70;;;;;;5006421;28;20482;-67
2022/03/16 12:17:26;;;;;;;12.50;9.57;;;27.40;51.10;;;;;;5006179;28;20053;-68
2022/03/16 12:20:24;;;;;;;14.13;9.80;;;28.00;49.90;;;;;;5004206;28;20042;-68
2022/03/16 12:22:52;;;;;;;13.57;9.45;;;27.60;49.20;;;;;;5003221;28;20053;-69
2022/03/16 12:25:26;;;;;;;14.82;9.75;;;27.10;49.40;;;;;;5004603;28;20145;-67
2022/03/16 12:30:55;;;;;;;13.00;9.05;;;26.50;50.60;;;;;;5007347;28;20455;-72
2022/03/16 12:33:23;;;;;;;14.48;9.52;;;24.70;50.80;;;;;;5006993;28;20053;-72
2022/03/16 12:36:13;;;;;;;13.32;10.00;;;23.20;53.10;;;;;;5025187;28;20140;-72
2022/03/16 12:38:47;;;;;;;13.43;10.10;;;21.90;55.40;;;;;;5027795;28;20041;-71
2022/03/16 12:44:02;;;;;;;16.23;10.95;;;19.70;62.30;;;;;;5010526;28;20038;-71
2022/03/16 12:46:33;;;;;;;15.88;10.13;;;19.10;68.90;;;;;;5007202;28;20423;-71
2022/03/16 12:49:13;;;;;;;16.17;10.18;;;18.80;73.50;;;;;;5007729;28;20128;-71
2022/03/16 12:51:45;;;;;;;15.48;10.50;;;18.40;77.50;;;;;;5006567;28;20042;-71
2022/03/16 12:54:21;;;;;;;14.55;10.10;;;18.40;81.00;;;;;;5006033;28;20120;-71
2022/03/16 12:56:51;;;;;;;;;;;18.10;83.70;;;;;;5004242;28;20068;-71